createdAt,value
2019-04-16T00:02:18.750Z,10.60
2019-04-16T00:05:00.947Z,10.50
2019-04-16T00:07:50.527Z,9.55
2019-04-16T00:10:40.608Z,11.73
2019-04-16T00:13:19.571Z,11.43
2019-04-16T00:15:50.683Z,13.40
2019-04-16T00:18:22.437Z,10.40
2019-04-16T00:21:11.908Z,10.03
2019-04-16T00:24:18.211Z,11.12
2019-04-16T00:26:59.364Z,10.72
2019-04-16T00:29:32.591Z,9.58
2019-04-16T00:32:07.869Z,10.25
2019-04-16T00:34:38.007Z,10.98
2019-04-16T00:37:09.833Z,10.18
2019-04-16T00:39:41.523Z,11.15
2019-04-16T00:42:13.659Z,11.40
2019-04-16T00:44:44.990Z,9.80
2019-04-16T00:47:16.585Z,10.95
2019-04-16T00:49:47.802Z,11.48
2019-04-16T00:52:19.970Z,10.55
2019-04-16T00:54:51.644Z,11.10
2019-04-16T00:57:23.735Z,14.18
2019-04-16T00:59:56.752Z,11.60
2019-04-16T01:02:28.075Z,12.18
2019-04-16T01:04:59.564Z,10.03
2019-04-16T01:07:30.842Z,12.05
2019-04-16T01:10:02.261Z,11.43
2019-04-16T01:12:34.662Z,12.35
2019-04-16T01:15:06.606Z,10.70
2019-04-16T01:17:38.680Z,11.38
2019-04-16T01:20:12.868Z,11.93
2019-04-16T01:22:46.733Z,12.33
2019-04-16T01:25:17.557Z,11.60
2019-04-16T01:27:53.957Z,13.90
2019-04-16T01:30:45.622Z,11.60
2019-04-16T01:33:30.292Z,13.20
2019-04-16T01:36:09.004Z,12.93
2019-04-16T01:38:45.893Z,11.30
2019-04-16T01:41:21.671Z,9.50
2019-04-16T01:43:50.720Z,10.43
2019-04-16T01:46:22.764Z,11.33
2019-04-16T01:48:55.072Z,12.30
2019-04-16T01:51:26.632Z,11.88
2019-04-16T01:53:57.953Z,12.58
2019-04-16T01:56:29.642Z,14.03
2019-04-16T01:59:04.570Z,12.23
2019-04-16T02:01:35.180Z,14.20
2019-04-16T02:04:07.229Z,12.03
2019-04-16T02:06:38.200Z,13.80
2019-04-16T02:09:22.098Z,12.82
2019-04-16T02:11:43.099Z,10.63
2019-04-16T02:14:17.197Z,11.57
2019-04-16T02:16:47.066Z,12.90
2019-04-16T02:19:18.406Z,12.40
2019-04-16T02:21:49.651Z,11.12
2019-04-16T02:24:20.647Z,14.20
2019-04-16T02:26:54.619Z,10.50
2019-04-16T02:29:29.773Z,13.32
2019-04-16T02:31:58.306Z,13.48
2019-04-16T02:34:30.001Z,11.75
2019-04-16T02:37:03.193Z,10.03
2019-04-16T02:39:47.579Z,10.53
2019-04-16T02:42:08.051Z,13.60
2019-04-16T02:44:39.380Z,16.77
2019-04-16T02:47:11.312Z,12.70
2019-04-16T02:49:42.727Z,13.10
2019-04-16T02:52:21.356Z,12.88
2019-04-16T02:55:09.123Z,12.85
2019-04-16T02:57:59.990Z,13.98
2019-04-16T03:01:00.337Z,12.35
2019-04-16T03:03:36.726Z,11.90
2019-04-16T03:06:08.884Z,12.70
2019-04-16T03:08:40.356Z,12.53
2019-04-16T03:11:13.741Z,11.60
2019-04-16T03:13:45.878Z,13.20
2019-04-16T03:16:39.782Z,12.98
2019-04-16T03:19:19.265Z,14.28
2019-04-16T03:21:47.313Z,11.68
2019-04-16T03:24:18.851Z,13.75
2019-04-16T03:26:50.662Z,16.70
2019-04-16T03:29:22.635Z,14.38
2019-04-16T03:31:58.037Z,16.15
2019-04-16T03:34:28.260Z,15.15
2019-04-16T03:37:01.884Z,16.57
2019-04-16T03:39:33.356Z,14.30
2019-04-16T03:42:05.165Z,10.78
2019-04-16T03:44:37.531Z,15.78
2019-04-16T03:47:08.849Z,17.20
2019-04-16T03:49:40.595Z,16.30
2019-04-16T03:52:12.392Z,14.58
2019-04-16T03:54:44.473Z,16.40
2019-04-16T03:57:15.796Z,13.48
2019-04-16T03:59:47.130Z,19.50
2019-04-16T04:02:22.022Z,14.53
2019-04-16T04:04:52.204Z,15.98
2019-04-16T04:07:24.232Z,14.03
2019-04-16T04:09:58.680Z,17.80
2019-04-16T04:12:29.281Z,15.35
2019-04-16T04:15:00.791Z,16.17
2019-04-16T04:17:35.719Z,19.15
2019-04-16T04:20:08.151Z,20.75
2019-04-16T04:22:39.783Z,18.48
2019-04-16T04:25:11.308Z,22.58
2019-04-16T04:27:46.699Z,22.13
2019-04-16T04:30:19.331Z,20.17
2019-04-16T04:32:51.222Z,20.57
2019-04-16T04:35:22.571Z,16.02
2019-04-16T04:37:53.946Z,18.05
2019-04-16T04:40:25.741Z,15.72
2019-04-16T04:42:57.702Z,22.42
2019-04-16T04:45:30.353Z,18.57
2019-04-16T04:48:01.715Z,18.48
2019-04-16T04:50:35.423Z,19.32
2019-04-16T04:53:06.131Z,20.35
2019-04-16T04:55:38.319Z,21.35
2019-04-16T04:58:09.932Z,18.00
2019-04-16T05:00:42.646Z,18.07
2019-04-16T05:03:20.422Z,16.17
2019-04-16T05:05:56.047Z,21.70
2019-04-16T05:08:28.652Z,16.00
2019-04-16T05:11:02.861Z,14.15
2019-04-16T05:13:33.671Z,12.00
2019-04-16T05:16:07.030Z,16.60
2019-04-16T05:18:41.966Z,14.87
2019-04-16T05:21:12.098Z,14.83
2019-04-16T05:23:44.042Z,11.53
2019-04-16T05:26:15.350Z,10.73
2019-04-16T05:28:47.315Z,11.50
2019-04-16T05:31:24.661Z,14.37
2019-04-16T05:33:52.882Z,10.93
2019-04-16T05:36:24.221Z,14.53
2019-04-16T05:38:56.454Z,13.67
2019-04-16T05:41:28.020Z,15.37
2019-04-16T05:44:02.056Z,12.67
2019-04-16T05:46:33.159Z,14.07
2019-04-16T05:49:05.047Z,15.17
2019-04-16T05:51:36.889Z,11.57
2019-04-16T05:54:22.005Z,12.97
2019-04-16T05:56:55.699Z,13.83
2019-04-16T05:59:26.952Z,12.20
2019-04-16T06:02:04.952Z,14.00
2019-04-16T06:04:36.803Z,17.70
2019-04-16T06:07:07.906Z,19.20
2019-04-16T06:09:41.526Z,13.30
2019-04-16T06:12:13.865Z,14.30
2019-04-16T06:14:53.849Z,11.40
2019-04-16T06:17:47.226Z,11.97
2019-04-16T06:20:38.543Z,12.13
2019-04-16T06:23:31.715Z,11.33
2019-04-16T06:26:14.793Z,11.83
2019-04-16T06:28:55.149Z,11.53
2019-04-16T06:31:42.426Z,11.87
2019-04-16T06:34:35.091Z,24.17
2019-04-16T06:37:32.240Z,46.93
2019-04-16T06:40:21.870Z,90.33
2019-04-16T06:42:58.055Z,110.23
2019-04-16T06:45:38.012Z,79.03
2019-04-16T06:48:13.314Z,51.07
2019-04-16T06:51:22.075Z,28.67
2019-04-16T06:54:08.757Z,12.07
2019-04-16T06:56:58.034Z,12.23
2019-04-16T06:59:51.039Z,15.63
2019-04-16T07:03:02.452Z,15.27
2019-04-16T07:05:35.899Z,11.93
2019-04-16T07:08:36.877Z,26.40
2019-04-16T07:11:00.134Z,27.40
2019-04-16T07:13:31.925Z,12.20
2019-04-16T07:16:03.574Z,13.40
2019-04-16T07:18:35.537Z,13.43
2019-04-16T07:21:08.548Z,17.70
2019-04-16T07:23:40.182Z,13.07
2019-04-16T07:26:14.598Z,16.13
2019-04-16T07:28:58.551Z,11.77
2019-04-16T07:31:44.947Z,19.90
2019-04-16T07:34:34.213Z,11.90
2019-04-16T07:37:23.371Z,17.33
2019-04-16T07:40:16.365Z,11.33
2019-04-16T07:43:06.066Z,13.47
2019-04-16T07:45:46.746Z,12.27
2019-04-16T07:48:38.809Z,16.70
2019-04-16T07:51:20.233Z,13.47
2019-04-16T07:54:21.755Z,13.90
2019-04-16T07:56:54.219Z,14.57
2019-04-16T07:59:26.358Z,17.67
2019-04-16T08:01:58.184Z,14.57
2019-04-16T08:04:35.304Z,12.07
2019-04-16T08:07:03.604Z,11.33
2019-04-16T08:09:34.906Z,13.77
2019-04-16T08:12:10.743Z,14.37
2019-04-16T08:14:40.830Z,14.70
2019-04-16T08:17:13.385Z,13.43
2019-04-16T08:19:49.110Z,13.47
2019-04-16T08:22:18.618Z,12.90
2019-04-16T08:24:59.640Z,12.63
2019-04-16T08:27:29.085Z,15.67
2019-04-16T08:30:03.460Z,13.43
2019-04-16T08:32:34.040Z,11.87
2019-04-16T08:35:05.836Z,13.70
2019-04-16T08:37:48.301Z,12.87
2019-04-16T08:40:12.480Z,13.97
2019-04-16T08:42:45.115Z,27.23
2019-04-16T08:45:16.844Z,13.63
2019-04-16T08:47:48.648Z,13.77
2019-04-16T08:50:20.557Z,15.20
2019-04-16T08:52:51.935Z,15.67
2019-04-16T08:55:24.245Z,11.77
2019-04-16T08:57:56.295Z,21.03
2019-04-16T09:00:27.863Z,16.63
2019-04-16T09:02:59.835Z,14.20
2019-04-16T09:05:31.079Z,28.00
2019-04-16T09:08:14.181Z,26.13
2019-04-16T09:10:45.847Z,17.20
2019-04-16T09:13:20.033Z,11.80
2019-04-16T09:15:51.347Z,19.80
2019-04-16T09:18:34.452Z,13.90
2019-04-16T09:21:06.874Z,14.40
2019-04-16T09:23:39.620Z,12.93
2019-04-16T09:26:28.477Z,23.63
2019-04-16T09:29:18.868Z,18.40
2019-04-16T09:32:03.531Z,15.53
2019-04-16T09:35:07.500Z,16.53
2019-04-16T09:37:41.078Z,15.47
2019-04-16T09:40:29.608Z,15.50
2019-04-16T09:43:01.749Z,14.57
2019-04-16T09:45:33.919Z,17.40
2019-04-16T09:48:06.802Z,12.83
2019-04-16T09:50:43.108Z,17.30
2019-04-16T09:53:12.690Z,17.30
2019-04-16T09:55:47.374Z,17.40
2019-04-16T09:58:23.195Z,13.77
2019-04-16T10:01:06.605Z,13.90
2019-04-16T10:03:40.559Z,14.77
2019-04-16T10:06:11.643Z,17.80
2019-04-16T10:08:44.941Z,14.13
2019-04-16T10:11:18.579Z,18.27
2019-04-16T10:13:50.627Z,14.03
2019-04-16T10:16:24.212Z,15.07
2019-04-16T10:18:55.730Z,15.90
2019-04-16T10:21:29.130Z,16.03
2019-04-16T10:24:21.581Z,14.30
2019-04-16T10:26:56.910Z,14.67
2019-04-16T10:29:28.796Z,16.67
2019-04-16T10:32:00.303Z,15.43
2019-04-16T10:34:32.591Z,15.23
2019-04-16T10:37:03.871Z,15.03
2019-04-16T10:39:44.085Z,18.47
2019-04-16T10:42:46.689Z,14.87
2019-04-16T10:45:40.079Z,18.30
2019-04-16T10:48:26.258Z,14.53
2019-04-16T10:51:07.782Z,15.50
2019-04-16T10:54:03.917Z,15.10
2019-04-16T10:57:10.152Z,17.57
2019-04-16T10:59:59.525Z,15.17
2019-04-16T11:02:44.590Z,14.07
2019-04-16T11:05:26.722Z,17.43
2019-04-16T11:07:58.589Z,16.73
2019-04-16T11:10:29.894Z,17.20
2019-04-16T11:13:03.038Z,17.00
2019-04-16T11:15:34.971Z,17.23
2019-04-16T11:18:07.017Z,16.50
2019-04-16T11:20:38.331Z,16.70
2019-04-16T11:23:10.601Z,16.83
2019-04-16T11:25:41.917Z,16.60
2019-04-16T11:28:14.866Z,16.53
2019-04-16T11:30:49.244Z,19.37
2019-04-16T11:33:20.268Z,14.90
2019-04-16T11:35:53.149Z,18.83
2019-04-16T11:38:24.825Z,14.87
2019-04-16T11:40:56.084Z,16.93
2019-04-16T11:43:27.729Z,17.03
2019-04-16T11:45:59.610Z,17.00
2019-04-16T11:48:31.262Z,16.07
2019-04-16T11:51:02.958Z,18.80
2019-04-16T11:53:34.595Z,15.17
2019-04-16T11:56:06.755Z,16.73
2019-04-16T11:58:48.440Z,15.00
2019-04-16T12:01:28.340Z,19.00
2019-04-16T12:04:04.734Z,18.60
2019-04-16T12:06:50.054Z,29.23
2019-04-16T12:09:43.345Z,15.60
2019-04-16T12:12:22.228Z,20.57
2019-04-16T12:15:11.029Z,17.10
2019-04-16T12:18:00.237Z,17.80
2019-04-16T12:20:49.621Z,16.63
2019-04-16T12:23:35.779Z,16.97
2019-04-16T12:26:35.169Z,17.43
2019-04-16T12:29:17.307Z,21.40
2019-04-16T12:32:04.147Z,15.53
2019-04-16T12:34:42.846Z,19.60
2019-04-16T12:37:29.868Z,17.03
2019-04-16T12:40:10.402Z,18.70
2019-04-16T12:42:47.067Z,16.20
2019-04-16T12:45:40.458Z,20.97
2019-04-16T12:48:29.786Z,16.87
2019-04-16T12:51:20.276Z,16.13
2019-04-16T12:53:56.439Z,15.87
2019-04-16T12:57:05.566Z,18.03
2019-04-16T12:59:43.721Z,17.07
2019-04-16T13:02:25.287Z,16.83
2019-04-16T13:05:09.118Z,16.57
2019-04-16T13:07:56.162Z,14.77
2019-04-16T13:10:44.496Z,19.63
2019-04-16T13:13:42.264Z,15.87
2019-04-16T13:16:18.134Z,18.67
2019-04-16T13:19:07.703Z,17.20
2019-04-16T13:21:50.222Z,17.97
2019-04-16T13:24:25.869Z,15.67
2019-04-16T13:27:28.090Z,17.77
2019-04-16T13:30:01.983Z,16.63
2019-04-16T13:32:33.047Z,17.03
2019-04-16T13:35:04.559Z,19.80
2019-04-16T13:37:37.894Z,17.77
2019-04-16T13:40:14.733Z,16.53
2019-04-16T13:42:46.027Z,17.67
2019-04-16T13:45:27.156Z,18.37
2019-04-16T13:47:56.481Z,17.43
2019-04-16T13:50:38.243Z,15.53
2019-04-16T13:53:26.079Z,17.77
2019-04-16T13:56:17.420Z,19.63
2019-04-16T13:58:56.147Z,17.47
2019-04-16T14:01:29.917Z,15.47
2019-04-16T14:04:01.881Z,16.83
2019-04-16T14:06:33.234Z,17.30
2019-04-16T14:09:06.285Z,18.60
2019-04-16T14:11:38.399Z,17.03
2019-04-16T14:14:10.124Z,21.07
2019-04-16T14:16:43.777Z,21.63
2019-04-16T14:19:15.173Z,19.97
2019-04-16T14:21:46.853Z,17.93
2019-04-16T14:24:18.780Z,18.53
2019-04-16T14:26:49.886Z,18.80
2019-04-16T14:29:24.775Z,21.87
2019-04-16T14:31:55.172Z,16.70
2019-04-16T14:34:48.439Z,19.20
2019-04-16T14:37:20.757Z,18.97
2019-04-16T14:40:20.096Z,19.77
2019-04-16T14:42:56.311Z,22.40
2019-04-16T14:45:53.624Z,19.13
2019-04-16T14:48:10.296Z,21.63
2019-04-16T14:50:41.801Z,20.40
2019-04-16T14:53:16.966Z,17.63
2019-04-16T14:56:00.474Z,21.47
2019-04-16T14:58:44.726Z,16.20
2019-04-16T15:01:43.976Z,17.30
2019-04-16T15:04:29.082Z,18.40
2019-04-16T15:07:08.662Z,15.90
2019-04-16T15:09:44.016Z,18.63
2019-04-16T15:12:46.883Z,17.73
2019-04-16T15:15:22.902Z,16.67
2019-04-16T15:18:15.679Z,18.87
2019-04-16T15:21:21.279Z,18.07
2019-04-16T15:24:06.664Z,22.00
2019-04-16T15:27:00.195Z,17.57
2019-04-16T15:29:44.488Z,18.67
2019-04-16T15:32:28.433Z,19.87
2019-04-16T15:35:00.937Z,18.87
2019-04-16T15:37:36.375Z,17.77
2019-04-16T15:40:13.437Z,19.87
2019-04-16T15:43:00.072Z,19.37
2019-04-16T15:46:07.373Z,19.17
2019-04-16T15:48:50.399Z,17.40
2019-04-16T15:51:38.694Z,17.43
2019-04-16T15:54:32.295Z,18.57
2019-04-16T15:57:21.942Z,17.77
2019-04-16T16:00:12.752Z,16.80
2019-04-16T16:03:02.422Z,19.40
2019-04-16T16:05:39.134Z,18.10
2019-04-16T16:08:16.500Z,18.63
2019-04-16T16:10:51.958Z,17.67
2019-04-16T16:13:26.299Z,16.07
2019-04-16T16:15:56.564Z,16.20
2019-04-16T16:18:27.670Z,15.57
2019-04-16T16:20:58.713Z,18.30
2019-04-16T16:23:34.060Z,19.47
2019-04-16T16:26:03.519Z,18.33
2019-04-16T16:28:35.704Z,19.30
2019-04-16T16:31:07.264Z,18.23
2019-04-16T16:33:38.886Z,16.37
2019-04-16T16:36:10.229Z,17.60
2019-04-16T16:38:41.580Z,17.63
2019-04-16T16:41:12.907Z,18.53
2019-04-16T16:43:45.427Z,17.13
2019-04-16T16:46:55.944Z,17.37
2019-04-16T16:49:15.753Z,17.03
2019-04-16T16:52:05.483Z,16.63
2019-04-16T16:54:36.895Z,18.70
2019-04-16T16:57:12.877Z,17.80
2019-04-16T17:00:05.856Z,19.77
2019-04-16T17:02:48.205Z,17.33
2019-04-16T17:05:24.539Z,18.67
2019-04-16T17:07:55.552Z,18.07
2019-04-16T17:10:27.536Z,19.37
2019-04-16T17:12:59.395Z,19.27
2019-04-16T17:15:31.266Z,20.37
2019-04-16T17:18:03.088Z,19.70
2019-04-16T17:20:34.935Z,19.50
2019-04-16T17:23:06.526Z,17.00
2019-04-16T17:25:38.521Z,19.10
2019-04-16T17:28:10.658Z,16.80
2019-04-16T17:30:41.752Z,25.23
2019-04-16T17:33:13.545Z,18.10
2019-04-16T17:35:46.498Z,19.27
2019-04-16T17:38:19.373Z,16.60
2019-04-16T17:40:58.706Z,15.20
2019-04-16T17:43:59.692Z,17.30
2019-04-16T17:46:29.730Z,17.43
2019-04-16T17:49:05.563Z,15.47
2019-04-16T17:52:00.204Z,17.13
2019-04-16T17:54:35.653Z,14.83
2019-04-16T17:57:29.039Z,18.33
2019-04-16T18:00:11.681Z,16.53
2019-04-16T18:03:11.186Z,18.23
2019-04-16T18:05:50.656Z,17.80
2019-04-16T18:08:52.536Z,19.07
2019-04-16T18:11:33.055Z,17.07
2019-04-16T18:14:28.806Z,18.20
2019-04-16T18:17:11.345Z,17.57
2019-04-16T18:20:00.812Z,21.33
2019-04-16T18:22:44.970Z,19.60
2019-04-16T18:25:35.088Z,17.20
2019-04-16T18:28:11.630Z,18.93
2019-04-16T18:31:08.213Z,18.23
2019-04-16T18:33:50.533Z,18.50
2019-04-16T18:36:34.448Z,17.37
2019-04-16T18:39:28.523Z,18.77
2019-04-16T18:42:04.044Z,18.97
2019-04-16T18:44:54.983Z,18.00
2019-04-16T18:48:02.698Z,17.07
2019-04-16T18:50:28.400Z,18.40
2019-04-16T18:53:00.472Z,16.80
2019-04-16T18:55:31.802Z,18.60
2019-04-16T18:58:03.308Z,19.33
2019-04-16T19:00:41.347Z,18.87
2019-04-16T19:03:15.014Z,23.17
2019-04-16T19:05:45.943Z,20.57
2019-04-16T19:08:18.677Z,18.80
2019-04-16T19:10:50.024Z,19.40
2019-04-16T19:13:21.580Z,26.83
2019-04-16T19:15:53.275Z,23.50
2019-04-16T19:18:24.667Z,21.30
2019-04-16T19:20:56.013Z,20.23
2019-04-16T19:23:27.018Z,20.80
2019-04-16T19:25:58.936Z,18.23
2019-04-16T19:28:31.916Z,20.70
2019-04-16T19:31:03.309Z,22.33
2019-04-16T19:33:38.340Z,19.40
2019-04-16T19:36:09.253Z,24.00
2019-04-16T19:38:40.983Z,29.33
2019-04-16T19:41:12.913Z,30.07
2019-04-16T19:43:44.193Z,65.53
2019-04-16T19:46:16.406Z,41.07
2019-04-16T19:48:47.720Z,37.87
2019-04-16T19:51:19.843Z,27.17
2019-04-16T19:53:51.982Z,34.10
2019-04-16T19:56:23.857Z,19.43
2019-04-16T19:58:55.446Z,30.83
2019-04-16T20:01:26.985Z,30.90
2019-04-16T20:03:59.097Z,24.83
2019-04-16T20:06:30.327Z,21.80
2019-04-16T20:09:02.104Z,21.20
2019-04-16T20:11:35.063Z,22.30
2019-04-16T20:14:06.378Z,22.40
2019-04-16T20:16:38.239Z,23.67
2019-04-16T20:19:10.210Z,23.23
2019-04-16T20:21:41.550Z,21.17
2019-04-16T20:24:13.376Z,24.13
2019-04-16T20:26:45.122Z,24.53
2019-04-16T20:29:17.024Z,22.00
2019-04-16T20:31:48.284Z,20.07
2019-04-16T20:34:19.604Z,20.73
2019-04-16T20:36:52.217Z,19.83
2019-04-16T20:39:24.215Z,17.90
2019-04-16T20:41:59.061Z,20.63
2019-04-16T20:44:29.720Z,17.27
2019-04-16T20:47:03.299Z,17.57
2019-04-16T20:49:34.445Z,17.20
2019-04-16T20:52:06.346Z,14.60
2019-04-16T20:54:44.069Z,18.50
2019-04-16T20:57:12.853Z,18.30
2019-04-16T20:59:44.145Z,13.95
2019-04-16T21:02:16.267Z,14.53
2019-04-16T21:04:47.844Z,16.45
2019-04-16T21:07:19.396Z,14.00
2019-04-16T21:09:50.983Z,14.40
2019-04-16T21:12:22.834Z,16.53
2019-04-16T21:14:55.436Z,15.30
2019-04-16T21:17:27.030Z,13.87
2019-04-16T21:19:58.916Z,13.67
2019-04-16T21:22:31.144Z,13.60
2019-04-16T21:25:02.699Z,17.52
2019-04-16T21:27:37.207Z,17.43
2019-04-16T21:30:13.062Z,15.23
2019-04-16T21:32:57.679Z,17.57
2019-04-16T21:35:38.445Z,17.90
2019-04-16T21:38:18.708Z,17.97
2019-04-16T21:40:52.881Z,15.25
2019-04-16T21:43:24.264Z,16.30
2019-04-16T21:45:57.062Z,15.13
2019-04-16T21:48:29.573Z,16.82
2019-04-16T21:51:00.823Z,18.90
2019-04-16T21:53:32.426Z,13.75
2019-04-16T21:56:07.853Z,15.70
2019-04-16T21:58:37.345Z,16.30
2019-04-16T22:01:27.291Z,14.05
2019-04-16T22:04:02.561Z,15.10
2019-04-16T22:06:33.814Z,14.07
2019-04-16T22:09:06.657Z,15.38
2019-04-16T22:11:43.492Z,14.38
2019-04-16T22:14:12.786Z,15.58
2019-04-16T22:16:44.593Z,13.35
2019-04-16T22:19:15.882Z,11.97
2019-04-16T22:21:47.210Z,15.25
2019-04-16T22:24:19.776Z,15.23
2019-04-16T22:26:51.857Z,15.35
2019-04-16T22:29:23.530Z,12.55
2019-04-16T22:31:56.880Z,14.58
2019-04-16T22:34:28.286Z,14.45
2019-04-16T22:37:00.289Z,14.15
2019-04-16T22:39:40.813Z,12.80
2019-04-16T22:42:26.445Z,12.85
2019-04-16T22:45:32.138Z,13.15
2019-04-16T22:48:03.390Z,15.40
2019-04-16T22:50:34.860Z,13.75
2019-04-16T22:53:07.111Z,15.75
2019-04-16T22:55:38.172Z,13.70
2019-04-16T22:58:23.550Z,15.45
2019-04-16T23:01:02.969Z,15.60
2019-04-16T23:03:34.280Z,14.85
2019-04-16T23:06:08.166Z,11.80
2019-04-16T23:08:40.488Z,12.07
2019-04-16T23:11:13.675Z,13.93
2019-04-16T23:13:44.681Z,13.78
2019-04-16T23:16:16.455Z,12.70
2019-04-16T23:18:49.433Z,12.70
2019-04-16T23:21:20.233Z,14.80
2019-04-16T23:23:52.352Z,12.68
2019-04-16T23:26:24.151Z,13.62
2019-04-16T23:28:55.470Z,14.00
2019-04-16T23:31:27.109Z,13.72
2019-04-16T23:33:58.667Z,12.30
2019-04-16T23:36:30.241Z,15.75
2019-04-16T23:39:04.318Z,17.95
2019-04-16T23:41:35.734Z,16.50
2019-04-16T23:44:44.265Z,15.72
2019-04-16T23:47:33.511Z,13.60
2019-04-16T23:50:13.684Z,13.62
2019-04-16T23:52:49.905Z,13.45
2019-04-16T23:55:49.003Z,12.30
2019-04-16T23:58:28.674Z,15.60
